KHAI

Three Rivers Municipal Dr Haines Airport

Three Rivers, Michigan, USA
METAR KHAI 222056Z AUTO 27010G14KT 10SM CLR 15/03 A3002 RMK AO2 T01450026
Observed Flight Rules
Oct-22 @ 20:56 UTC (11 minutes ago) Visual Flight Rules
Wind Visibility Clouds
270° at 10 knots
 Gusting to 14 knots
10 miles
  • Clear skies
Temperatures Readings
Current 15°C / 59°F
Dewpoint 3°C / 37°F
Humidity 45%
Altimeter 30.02" Hg
Pressure 1017 hPa
Elevation 251
METAR KHAI 222056Z AUTO 27010G14KT 10SM CLR 15/03 A3002 RMK AO2 T01450026
Observed Flight Rules
Oct-22 @ 20:56 UTC
(11 minutes ago)
VFR
Wind Visibility
270° at 10 knots
 Gusting to 14 knots
10 miles
Clouds
  • Clear skies
Temperature Dewpoint
15°C / 59°F 3°C / 37°F
Humidity Altimeter Pressure
45% 30.02" Hg 1017 hPa